Time;durP1;ratioP1;P1;durP2;ratioP2;P2;SDS_P1;SDS_P2;PMS_P1;PMS_P2;Temp;Humidity;BMP_temperature;BMP_pressure;BME280_temperature;BME280_humidity;BME280_pressure;Samples;Min_cycle;Max_cycle;Signal;HPM_P1;HPM_P2
2022/07/18 00:01:49;;;;;;;7.20;5.57;;;9.50;99.90;;;;;;5050989;28;20050;-79
2022/07/18 00:04:14;;;;;;;10.90;6.32;;;9.50;99.90;;;;;;5051023;28;20025;-79
2022/07/18 00:06:40;;;;;;;8.88;5.32;;;9.40;99.90;;;;;;5050913;28;20060;-72
2022/07/18 00:09:06;;;;;;;7.50;6.30;;;9.40;99.90;;;;;;5052579;28;20079;-73
2022/07/18 00:11:32;;;;;;;13.52;6.28;;;9.30;99.90;;;;;;5050838;28;20444;-79
2022/07/18 00:13:57;;;;;;;8.00;5.80;;;9.30;99.90;;;;;;5050975;28;20470;-74
2022/07/18 00:16:24;;;;;;;9.63;6.53;;;9.30;99.90;;;;;;5052152;28;20031;-78
2022/07/18 00:18:50;;;;;;;8.95;6.60;;;9.30;99.90;;;;;;5050921;28;20032;-78
2022/07/18 00:21:16;;;;;;;7.95;6.00;;;9.30;99.90;;;;;;5050561;28;20111;-72
2022/07/18 00:23:42;;;;;;;9.00;5.85;;;9.20;99.90;;;;;;5051834;28;20028;-78
2022/07/18 00:26:07;;;;;;;6.13;5.53;;;9.10;99.90;;;;;;5051964;28;20025;-73
2022/07/18 00:28:33;;;;;;;7.50;5.75;;;9.10;99.90;;;;;;5051915;28;20509;-79
2022/07/18 00:30:59;;;;;;;7.80;5.82;;;9.00;99.90;;;;;;5051596;28;20025;-78
2022/07/18 00:33:24;;;;;;;12.10;6.00;;;9.00;99.90;;;;;;5049934;28;20018;-78
2022/07/18 00:35:50;;;;;;;8.00;5.97;;;9.10;99.90;;;;;;5051833;28;20100;-72
2022/07/18 00:38:16;;;;;;;7.28;5.53;;;9.10;99.90;;;;;;5051931;28;20500;-74
2022/07/18 00:40:42;;;;;;;7.10;5.47;;;9.00;99.90;;;;;;5050492;28;20037;-79
2022/07/18 00:43:07;;;;;;;8.25;5.82;;;9.00;99.90;;;;;;5051760;28;20048;-78
2022/07/18 00:45:33;;;;;;;7.20;6.03;;;8.90;99.90;;;;;;5051699;28;20033;-73
2022/07/18 00:48:04;;;;;;;9.45;6.82;;;8.90;99.90;;;;;;5051673;28;20029;-72
2022/07/18 00:50:30;;;;;;;9.63;5.88;;;8.90;99.90;;;;;;5051699;28;20162;-79
2022/07/18 00:52:55;;;;;;;9.50;5.85;;;8.90;99.90;;;;;;5050212;28;20108;-78
2022/07/18 00:55:21;;;;;;;6.35;5.10;;;8.90;99.90;;;;;;5051553;28;20093;-73
2022/07/18 00:57:47;;;;;;;8.52;5.80;;;8.90;99.90;;;;;;5051547;28;20040;-72
2022/07/18 01:02:59;;;;;;;7.20;5.20;;;8.70;99.90;;;;;;5031644;28;20481;-72
2022/07/18 01:05:24;;;;;;;6.00;5.40;;;8.70;99.90;;;;;;5031573;28;20038;-79
2022/07/18 01:07:51;;;;;;;5.45;4.75;;;8.60;99.90;;;;;;5031476;28;20132;-79
2022/07/18 01:10:18;;;;;;;10.00;5.63;;;8.60;99.90;;;;;;5031594;28;20018;-72
2022/07/18 01:12:45;;;;;;;7.13;5.95;;;8.60;99.90;;;;;;5029940;28;20071;-79
2022/07/18 01:15:11;;;;;;;5.63;4.80;;;8.50;99.90;;;;;;5031426;28;20028;-72
2022/07/18 01:17:36;;;;;;;7.82;5.55;;;8.60;99.90;;;;;;5030085;28;20021;-72
2022/07/18 01:20:05;;;;;;;6.50;5.03;;;8.50;99.90;;;;;;5038581;28;20043;-72
2022/07/18 01:22:31;;;;;;;9.52;5.82;;;8.50;99.90;;;;;;5050940;28;20029;-79
2022/07/18 01:24:57;;;;;;;9.90;6.10;;;8.50;99.90;;;;;;5049847;28;20021;-78
2022/07/18 01:27:23;;;;;;;8.20;5.85;;;8.50;99.90;;;;;;5051046;28;20025;-79
2022/07/18 01:29:50;;;;;;;10.68;6.10;;;8.50;99.90;;;;;;5051203;28;20029;-79
2022/07/18 01:32:17;;;;;;;7.07;5.85;;;8.50;99.90;;;;;;5050876;28;20063;-79
2022/07/18 01:34:45;;;;;;;7.65;5.43;;;8.50;99.90;;;;;;5050952;28;20031;-79
2022/07/18 01:37:11;;;;;;;7.03;5.20;;;8.40;99.90;;;;;;5050812;28;20017;-79
2022/07/18 01:39:37;;;;;;;5.85;4.85;;;8.40;99.90;;;;;;5050914;28;20482;-73
2022/07/18 01:42:06;;;;;;;6.25;5.10;;;8.40;99.90;;;;;;5050821;28;20029;-79
2022/07/18 01:44:32;;;;;;;5.13;4.18;;;8.30;99.90;;;;;;5049161;28;20389;-78
2022/07/18 01:46:58;;;;;;;4.68;4.28;;;8.20;99.90;;;;;;5049551;28;20077;-72
2022/07/18 01:49:25;;;;;;;4.70;4.30;;;8.20;99.90;;;;;;5050649;28;20025;-73
2022/07/18 01:51:53;;;;;;;4.95;4.35;;;8.10;99.90;;;;;;5050662;28;20482;-72
2022/07/18 01:54:31;;;;;;;7.00;5.20;;;8.10;99.90;;;;;;5050516;28;20025;-72
2022/07/18 01:56:57;;;;;;;6.55;5.38;;;8.10;99.90;;;;;;5049440;28;20478;-78
2022/07/18 01:59:24;;;;;;;5.85;4.70;;;8.10;99.90;;;;;;5050485;28;20037;-73
2022/07/18 02:01:50;;;;;;;6.07;5.00;;;8.10;99.90;;;;;;5050532;28;20029;-72
2022/07/18 02:04:16;;;;;;;5.47;4.97;;;8.10;99.90;;;;;;5050574;28;20039;-73
2022/07/18 02:06:42;;;;;;;5.60;5.05;;;8.00;99.90;;;;;;5050376;28;20064;-78
2022/07/18 02:09:08;;;;;;;7.90;5.32;;;8.10;99.90;;;;;;5050495;28;20032;-78
2022/07/18 02:11:35;;;;;;;5.85;5.03;;;8.10;99.90;;;;;;5049064;28;20028;-72
2022/07/18 02:14:01;;;;;;;6.13;5.43;;;8.10;99.90;;;;;;5050332;28;20028;-78
2022/07/18 02:16:28;;;;;;;7.40;5.75;;;8.10;99.90;;;;;;5050280;28;20025;-72
2022/07/18 02:18:55;;;;;;;5.15;4.65;;;8.10;99.90;;;;;;5050258;28;20013;-72
2022/07/18 02:21:20;;;;;;;9.40;5.32;;;8.10;99.90;;;;;;5050147;28;20127;-78
2022/07/18 02:23:46;;;;;;;6.53;5.22;;;8.10;99.90;;;;;;5048963;28;20533;-72
2022/07/18 02:26:12;;;;;;;5.88;4.93;;;8.10;99.90;;;;;;5048861;28;20466;-72
2022/07/18 02:28:38;;;;;;;8.05;5.25;;;8.20;99.90;;;;;;5050117;28;20025;-79
2022/07/18 02:31:05;;;;;;;7.82;5.13;;;8.20;99.90;;;;;;5048941;28;20450;-79
2022/07/18 02:33:32;;;;;;;7.78;4.90;;;8.10;99.90;;;;;;5050141;28;20036;-79
2022/07/18 02:35:57;;;;;;;7.53;5.68;;;8.10;99.90;;;;;;5048888;28;20036;-79
2022/07/18 02:38:23;;;;;;;6.70;4.90;;;8.00;99.90;;;;;;5048577;28;20402;-73
2022/07/18 02:40:49;;;;;;;7.88;5.40;;;8.10;99.90;;;;;;5049852;28;20047;-79
2022/07/18 02:43:15;;;;;;;6.32;5.60;;;8.10;99.90;;;;;;5049881;28;20025;-78
2022/07/18 02:45:41;;;;;;;7.35;5.53;;;8.10;99.90;;;;;;5049980;28;20025;-73
2022/07/18 02:48:06;;;;;;;6.07;4.55;;;8.00;99.90;;;;;;5049894;28;20032;-73
2022/07/18 02:50:32;;;;;;;6.75;5.00;;;8.00;99.90;;;;;;5049842;28;20386;-79
2022/07/18 02:52:58;;;;;;;6.00;5.13;;;8.00;99.90;;;;;;5049792;28;20029;-72
2022/07/18 02:55:23;;;;;;;5.22;4.70;;;7.90;99.90;;;;;;5049935;28;20017;-73
2022/07/18 02:57:50;;;;;;;6.38;4.95;;;7.90;99.90;;;;;;5053454;28;20463;-72
2022/07/18 03:00:17;;;;;;;5.13;4.10;;;8.00;99.90;;;;;;5051940;28;20387;-72
2022/07/18 03:02:44;;;;;;;7.25;4.88;;;7.90;99.90;;;;;;5053128;28;20478;-72
2022/07/18 03:05:12;;;;;;;5.20;4.70;;;7.80;99.90;;;;;;5053308;28;20432;-79
2022/07/18 03:07:38;;;;;;;5.07;4.57;;;7.80;99.90;;;;;;5053209;28;20088;-72
2022/07/18 03:10:05;;;;;;;4.95;4.53;;;7.80;99.90;;;;;;5053224;28;20038;-72
2022/07/18 03:12:31;;;;;;;4.60;4.20;;;7.80;99.90;;;;;;5052970;28;20032;-73
2022/07/18 03:14:57;;;;;;;5.28;4.28;;;7.80;99.90;;;;;;5053254;28;20033;-79
2022/07/18 03:17:23;;;;;;;5.97;4.72;;;7.80;99.90;;;;;;5053290;28;20028;-79
2022/07/18 03:19:49;;;;;;;5.15;4.72;;;7.90;99.90;;;;;;5051564;28;20043;-72
2022/07/18 03:22:14;;;;;;;6.40;4.28;;;8.00;99.90;;;;;;5052845;28;20028;-73
2022/07/18 03:24:40;;;;;;;5.80;4.63;;;8.00;99.90;;;;;;5052844;28;20025;-79
2022/07/18 03:27:06;;;;;;;7.82;4.50;;;8.00;99.90;;;;;;5053228;28;20025;-78
2022/07/18 03:29:31;;;;;;;5.15;4.43;;;8.10;99.90;;;;;;5052920;28;20086;-78
2022/07/18 03:31:57;;;;;;;4.68;4.20;;;8.20;99.90;;;;;;5052831;28;20036;-79
2022/07/18 03:34:23;;;;;;;5.88;4.20;;;8.20;99.90;;;;;;5051379;28;20029;-79
2022/07/18 03:36:48;;;;;;;5.38;4.40;;;8.30;99.90;;;;;;5051578;28;20535;-79
2022/07/18 03:39:14;;;;;;;7.95;4.53;;;8.50;99.90;;;;;;5051379;28;20060;-73
2022/07/18 03:41:40;;;;;;;10.75;4.43;;;8.70;99.90;;;;;;5052782;28;20054;-79
2022/07/18 03:44:06;;;;;;;5.43;4.18;;;8.90;99.90;;;;;;5052680;28;20067;-73
2022/07/18 03:46:32;;;;;;;6.60;4.47;;;9.00;99.90;;;;;;5051242;28;20021;-80
2022/07/18 03:48:58;;;;;;;4.88;4.43;;;9.30;99.90;;;;;;5051432;28;20050;-73
2022/07/18 03:51:24;;;;;;;7.55;4.70;;;9.50;99.90;;;;;;5052344;28;20109;-73
2022/07/18 03:53:50;;;;;;;6.30;4.72;;;9.70;99.90;;;;;;5051228;28;20037;-78
2022/07/18 03:56:16;;;;;;;6.80;4.18;;;9.90;99.90;;;;;;5052372;28;20032;-79
2022/07/18 03:58:43;;;;;;;10.45;8.27;;;10.10;99.90;;;;;;5052570;28;20025;-73
2022/07/18 04:01:09;;;;;;;5.88;5.05;;;10.40;99.90;;;;;;5050869;28;20070;-78
2022/07/18 04:03:35;;;;;;;5.75;4.90;;;10.70;99.90;;;;;;5047835;27;20078;-79
2022/07/18 04:06:01;;;;;;;8.88;4.75;;;10.70;99.90;;;;;;5040329;27;20030;-79
2022/07/18 04:08:26;;;;;;;4.65;4.25;;;10.90;99.90;;;;;;5076713;27;20035;-79
2022/07/18 04:10:52;;;;;;;5.05;3.80;;;11.00;99.90;;;;;;5157062;27;20112;-73
2022/07/18 04:13:18;;;;;;;6.18;4.60;;;11.10;99.90;;;;;;5085228;27;20014;-76
2022/07/18 04:15:44;;;;;;;14.20;10.90;;;11.10;99.90;;;;;;5157267;27;20495;-79
2022/07/18 04:18:09;;;;;;;12.52;10.32;;;11.20;99.90;;;;;;5060887;27;20025;-79
2022/07/18 04:20:36;;;;;;;10.02;7.32;;;11.30;99.90;;;;;;5050240;28;20090;-74
2022/07/18 04:23:05;;;;;;;12.60;5.32;;;11.50;99.90;;;;;;5146154;27;20023;-73
2022/07/18 04:25:41;;;;;;;9.70;5.80;;;11.60;99.90;;;;;;5094431;27;20406;-79
2022/07/18 04:28:10;;;;;;;7.43;5.18;;;11.70;99.90;;;;;;5155358;27;20018;-79
2022/07/18 04:30:37;;;;;;;8.15;5.95;;;11.80;99.90;;;;;;5156783;27;20022;-79
2022/07/18 04:33:04;;;;;;;7.95;5.40;;;12.00;99.90;;;;;;5074596;27;20498;-80
2022/07/18 04:35:31;;;;;;;7.25;5.07;;;12.20;99.90;;;;;;5084087;27;20446;-73
2022/07/18 04:37:56;;;;;;;8.80;5.53;;;12.40;99.90;;;;;;5119478;27;20025;-73
2022/07/18 04:40:22;;;;;;;8.45;5.65;;;12.60;99.90;;;;;;5122823;27;20031;-73
2022/07/18 04:42:48;;;;;;;8.50;6.07;;;12.80;99.90;;;;;;5119671;27;20478;-72
2022/07/18 04:45:21;;;;;;;8.68;5.85;;;12.80;99.90;;;;;;5122780;27;20500;-73
2022/07/18 04:47:48;;;;;;;11.60;6.90;;;12.90;99.90;;;;;;5115136;27;20385;-73
2022/07/18 04:50:14;;;;;;;8.75;7.18;;;12.90;99.90;;;;;;5055780;27;20033;-73
2022/07/18 04:52:41;;;;;;;7.57;5.88;;;13.00;99.90;;;;;;5156206;27;20391;-72
2022/07/18 04:55:08;;;;;;;13.80;7.43;;;13.00;99.90;;;;;;5148500;27;20357;-72
2022/07/18 04:57:34;;;;;;;12.65;7.13;;;13.10;99.90;;;;;;5095651;27;20052;-79
2022/07/18 05:00:03;;;;;;;9.35;6.55;;;13.10;99.90;;;;;;5084845;27;20048;-79
2022/07/18 05:02:29;;;;;;;9.27;6.53;;;13.20;99.90;;;;;;5060226;27;20021;-80
2022/07/18 05:04:55;;;;;;;9.32;6.88;;;13.40;99.90;;;;;;5079274;27;20017;-80
2022/07/18 05:07:20;;;;;;;11.52;6.97;;;13.50;99.90;;;;;;5049817;28;20057;-73
2022/07/18 05:09:46;;;;;;;9.70;6.35;;;13.60;99.90;;;;;;5110956;27;20353;-74
2022/07/18 05:12:11;;;;;;;10.88;7.63;;;13.60;99.90;;;;;;5155100;27;20030;-80
2022/07/18 05:14:37;;;;;;;12.18;7.72;;;13.60;99.90;;;;;;5095214;27;20032;-79
2022/07/18 05:17:03;;;;;;;10.05;7.72;;;13.60;99.90;;;;;;5049605;28;20032;-80
2022/07/18 05:19:29;;;;;;;11.70;7.90;;;13.60;99.90;;;;;;5048550;28;20438;-80
2022/07/18 05:21:54;;;;;;;9.88;6.57;;;13.60;99.90;;;;;;5146563;27;20046;-73
2022/07/18 05:24:20;;;;;;;18.33;7.75;;;13.60;99.90;;;;;;5094086;27;20060;-74
2022/07/18 05:26:46;;;;;;;15.85;6.90;;;13.60;99.90;;;;;;5126235;27;20029;-74
2022/07/18 05:29:12;;;;;;;8.80;6.55;;;13.60;99.90;;;;;;5108738;27;20382;-79
2022/07/18 05:31:41;;;;;;;9.68;7.93;;;13.60;99.90;;;;;;5063554;27;20058;-79
2022/07/18 05:34:08;;;;;;;12.13;7.22;;;13.70;99.90;;;;;;5113665;27;20022;-79
2022/07/18 05:36:34;;;;;;;13.13;8.10;;;13.70;99.90;;;;;;5155431;27;20372;-79
2022/07/18 05:39:00;;;;;;;8.93;6.90;;;13.80;99.90;;;;;;5155543;27;20019;-79
2022/07/18 05:41:26;;;;;;;14.48;7.30;;;13.70;99.90;;;;;;5085803;27;20023;-73
2022/07/18 05:43:52;;;;;;;11.73;6.95;;;13.80;99.90;;;;;;5089498;27;20029;-79
2022/07/18 05:46:18;;;;;;;10.35;8.07;;;13.90;99.90;;;;;;5148904;27;20438;-79
2022/07/18 05:48:44;;;;;;;12.15;8.13;;;14.00;99.90;;;;;;5152971;27;20508;-74
2022/07/18 05:51:10;;;;;;;12.80;8.23;;;14.10;99.90;;;;;;5053247;27;20418;-73
2022/07/18 05:53:36;;;;;;;13.07;7.43;;;14.10;99.90;;;;;;5114493;27;20468;-79
2022/07/18 05:56:03;;;;;;;14.30;7.75;;;14.10;99.90;;;;;;5125108;27;20073;-80
2022/07/18 05:58:28;;;;;;;12.40;7.45;;;14.10;99.90;;;;;;5049115;28;20509;-79
2022/07/18 06:00:54;;;;;;;9.65;7.00;;;14.10;99.90;;;;;;5123318;27;20033;-73
2022/07/18 06:03:20;;;;;;;15.00;7.57;;;14.20;99.90;;;;;;5048632;28;20033;-74
2022/07/18 06:05:46;;;;;;;11.10;7.32;;;14.30;99.90;;;;;;5049126;28;20386;-79
2022/07/18 06:08:11;;;;;;;13.02;8.00;;;14.50;99.90;;;;;;5105799;27;20407;-80
2022/07/18 06:10:37;;;;;;;10.70;7.00;;;14.50;99.90;;;;;;5151676;27;20044;-74
2022/07/18 06:13:03;;;;;;;13.55;7.43;;;14.60;99.90;;;;;;5088709;27;20029;-80
2022/07/18 06:15:29;;;;;;;12.57;6.95;;;14.60;99.90;;;;;;5045608;28;20056;-73
2022/07/18 06:17:54;;;;;;;12.70;7.25;;;14.90;99.90;;;;;;5046470;27;20032;-73
2022/07/18 06:20:22;;;;;;;16.77;6.70;;;15.20;99.90;;;;;;5045432;28;20077;-73
2022/07/18 06:22:47;;;;;;;13.73;7.07;;;15.40;99.90;;;;;;5045179;28;20017;-79
2022/07/18 06:25:13;;;;;;;14.20;6.28;;;15.60;99.90;;;;;;5046584;28;20032;-74
2022/07/18 06:27:41;;;;;;;10.25;6.68;;;15.90;97.50;;;;;;5086913;27;20019;-80
2022/07/18 06:30:09;;;;;;;14.70;7.25;;;16.00;94.60;;;;;;5078390;27;20056;-80
2022/07/18 06:32:35;;;;;;;13.18;6.55;;;16.20;93.00;;;;;;5091177;27;20045;-73
2022/07/18 06:35:02;;;;;;;13.60;7.15;;;16.30;91.60;;;;;;5142538;27;20041;-79
2022/07/18 06:37:27;;;;;;;9.77;6.93;;;16.30;88.80;;;;;;5154528;27;20023;-79
2022/07/18 06:39:53;;;;;;;8.93;6.82;;;16.30;88.60;;;;;;5060698;27;20037;-80
2022/07/18 06:42:19;;;;;;;10.38;6.07;;;16.40;88.90;;;;;;5102016;27;20015;-73
2022/07/18 06:44:44;;;;;;;13.60;7.50;;;16.40;87.60;;;;;;5154069;27;20472;-79
2022/07/18 06:47:10;;;;;;;10.63;6.30;;;16.50;89.00;;;;;;5094225;27;20040;-72
2022/07/18 06:49:36;;;;;;;11.27;6.03;;;16.70;87.90;;;;;;5090604;27;20500;-73
2022/07/18 06:52:02;;;;;;;11.27;6.07;;;17.00;86.00;;;;;;5145352;27;20083;-72
2022/07/18 06:54:28;;;;;;;13.55;6.63;;;17.10;83.40;;;;;;5056867;27;20381;-79
2022/07/18 06:56:55;;;;;;;8.73;5.70;;;17.20;84.40;;;;;;5108896;27;20030;-80
2022/07/18 06:59:21;;;;;;;8.55;5.72;;;17.40;82.00;;;;;;5153034;27;20752;-80
2022/07/18 07:01:47;;;;;;;11.65;5.82;;;17.50;80.60;;;;;;5089389;27;20041;-80
2022/07/18 07:04:12;;;;;;;12.07;4.97;;;17.70;80.60;;;;;;5077183;28;20029;-80
2022/07/18 07:06:38;;;;;;;7.43;4.20;;;17.80;74.20;;;;;;5102903;27;20047;-83
2022/07/18 07:09:05;;;;;;;10.95;4.75;;;18.00;71.90;;;;;;5152500;27;20023;-79
2022/07/18 07:11:31;;;;;;;9.70;4.43;;;18.00;70.50;;;;;;5152367;27;20451;-79
2022/07/18 07:13:57;;;;;;;6.07;3.90;;;18.10;71.00;;;;;;5151276;27;20097;-79
2022/07/18 07:16:23;;;;;;;6.38;3.88;;;18.40;72.90;;;;;;5152200;27;20022;-80
2022/07/18 07:18:49;;;;;;;12.27;4.05;;;18.50;73.90;;;;;;5153270;27;20015;-78
2022/07/18 07:21:15;;;;;;;7.88;3.92;;;18.60;67.70;;;;;;5093623;27;20402;-78
2022/07/18 07:23:41;;;;;;;5.95;2.97;;;18.80;66.80;;;;;;5138051;27;20097;-79
2022/07/18 07:26:07;;;;;;;7.93;3.33;;;18.90;65.90;;;;;;5117668;27;20034;-79
2022/07/18 07:28:33;;;;;;;7.63;3.50;;;19.00;65.70;;;;;;5063355;27;20566;-78
2022/07/18 07:30:59;;;;;;;6.10;3.95;;;19.30;67.80;;;;;;5062185;27;20104;-78
2022/07/18 07:33:25;;;;;;;5.95;3.30;;;19.40;66.70;;;;;;5069180;28;20534;-78
2022/07/18 07:35:51;;;;;;;2.58;2.28;;;19.60;65.50;;;;;;5068195;28;20426;-78
2022/07/18 07:38:19;;;;;;;4.50;2.78;;;19.50;58.30;;;;;;5067483;28;20491;-74
2022/07/18 07:40:46;;;;;;;3.17;2.03;;;19.60;58.10;;;;;;5067630;28;20071;-79
2022/07/18 07:43:14;;;;;;;10.13;2.40;;;19.60;56.50;;;;;;5071419;28;20037;-74
2022/07/18 07:45:41;;;;;;;4.03;2.28;;;19.80;56.00;;;;;;5071296;28;20136;-78
2022/07/18 07:48:07;;;;;;;3.80;1.88;;;19.70;55.10;;;;;;5069721;28;20482;-78
2022/07/18 07:50:33;;;;;;;2.28;1.80;;;19.70;55.10;;;;;;5070287;28;20024;-74
2022/07/18 07:53:00;;;;;;;6.80;2.25;;;19.80;55.40;;;;;;5072061;28;20021;-73
2022/07/18 07:55:26;;;;;;;3.13;2.08;;;19.90;54.60;;;;;;5072587;28;20021;-78
2022/07/18 07:57:52;;;;;;;5.72;2.45;;;20.00;55.30;;;;;;5072682;28;20020;-73
2022/07/18 08:00:18;;;;;;;2.97;1.83;;;20.30;55.50;;;;;;5071561;28;20051;-79
2022/07/18 08:03:01;;;;;;;4.07;2.15;;;20.50;56.20;;;;;;5052557;28;20032;-77
2022/07/18 08:05:29;;;;;;;3.35;2.38;;;20.70;55.00;;;;;;5052326;28;20032;-78
2022/07/18 08:07:56;;;;;;;3.20;2.05;;;20.60;53.80;;;;;;5050938;28;20061;-78
2022/07/18 08:10:22;;;;;;;4.45;2.03;;;20.80;54.90;;;;;;5048827;28;20078;-78
2022/07/18 08:12:48;;;;;;;4.65;1.90;;;20.80;54.50;;;;;;5051696;28;20057;-78
2022/07/18 08:15:14;;;;;;;4.50;2.03;;;20.80;53.10;;;;;;5051013;28;20021;-74
2022/07/18 08:17:39;;;;;;;4.47;2.25;;;21.00;55.00;;;;;;5052611;28;20035;-73
2022/07/18 08:20:06;;;;;;;3.95;1.88;;;20.90;53.20;;;;;;5052171;28;20045;-73
2022/07/18 08:22:32;;;;;;;2.45;1.77;;;20.90;52.50;;;;;;5052189;28;20394;-73
2022/07/18 08:24:58;;;;;;;4.93;1.80;;;20.90;51.70;;;;;;5050893;28;20018;-78
2022/07/18 08:27:23;;;;;;;3.22;2.00;;;21.00;53.20;;;;;;5050748;28;20390;-78
2022/07/18 08:29:49;;;;;;;2.03;1.63;;;21.10;53.00;;;;;;5050670;28;20017;-74
2022/07/18 08:32:15;;;;;;;2.42;1.67;;;21.00;52.20;;;;;;5052083;28;20048;-79
2022/07/18 08:34:40;;;;;;;2.58;1.45;;;21.10;52.00;;;;;;5051978;28;20070;-78
2022/07/18 08:37:06;;;;;;;3.83;1.60;;;21.30;52.60;;;;;;5052012;28;20029;-78
2022/07/18 08:39:32;;;;;;;3.92;1.70;;;21.40;51.40;;;;;;5050603;28;20037;-78
2022/07/18 08:42:01;;;;;;;1.33;1.23;;;21.60;52.10;;;;;;5050550;28;20045;-78
2022/07/18 08:44:31;;;;;;;3.13;1.70;;;21.60;50.40;;;;;;5050596;28;20085;-73
2022/07/18 08:46:58;;;;;;;3.75;1.50;;;21.60;49.60;;;;;;5052042;28;20017;-78
2022/07/18 08:49:25;;;;;;;2.72;1.65;;;21.80;51.40;;;;;;5050520;28;20013;-78
2022/07/18 08:51:51;;;;;;;1.63;1.52;;;21.80;51.60;;;;;;5051398;28;20025;-73
2022/07/18 08:54:17;;;;;;;1.42;1.33;;;21.80;50.20;;;;;;5050602;28;20032;-78
2022/07/18 08:56:43;;;;;;;3.00;1.52;;;21.70;50.10;;;;;;5050478;28;20029;-74
2022/07/18 08:59:09;;;;;;;5.90;2.55;;;21.70;50.20;;;;;;5051512;28;20032;-74
2022/07/18 09:01:34;;;;;;;2.95;1.80;;;21.70;50.30;;;;;;5051530;28;20025;-78
2022/07/18 09:04:16;;;;;;;2.67;1.58;;;21.80;50.10;;;;;;5051418;28;20069;-73
2022/07/18 09:06:50;;;;;;;3.57;1.40;;;21.90;50.30;;;;;;5050174;28;20056;-73
2022/07/18 09:09:17;;;;;;;2.53;1.70;;;22.00;48.80;;;;;;5051447;28;20036;-73
2022/07/18 09:11:57;;;;;;;2.30;1.40;;;21.80;49.10;;;;;;5051431;28;20100;-73
2022/07/18 09:14:29;;;;;;;5.15;1.50;;;22.20;50.80;;;;;;5051149;28;20478;-78
2022/07/18 09:17:22;;;;;;;4.53;1.70;;;22.30;51.10;;;;;;5050220;28;20120;-78
2022/07/18 09:20:07;;;;;;;1.90;1.38;;;21.90;49.00;;;;;;5050071;28;20062;-78
2022/07/18 09:22:38;;;;;;;3.53;2.08;;;22.10;50.30;;;;;;5051333;28;20084;-78
2022/07/18 09:25:09;;;;;;;2.22;1.50;;;22.00;48.80;;;;;;5049957;28;20021;-78
2022/07/18 09:27:44;;;;;;;2.60;1.17;;;21.80;47.60;;;;;;5051229;28;20062;-78
2022/07/18 09:30:11;;;;;;;5.68;1.70;;;21.80;47.60;;;;;;5051188;28;20371;-78
2022/07/18 09:32:39;;;;;;;3.72;1.83;;;22.10;47.80;;;;;;5051179;28;20033;-78
2022/07/18 09:35:14;;;;;;;4.22;1.60;;;22.20;48.70;;;;;;5051108;28;20021;-73
2022/07/18 09:37:51;;;;;;;2.80;1.55;;;22.50;50.70;;;;;;5051116;28;20033;-78
2022/07/18 09:40:38;;;;;;;2.25;1.40;;;22.70;50.00;;;;;;5050938;28;20029;-78
2022/07/18 09:43:06;;;;;;;3.28;1.27;;;22.90;49.60;;;;;;5041125;28;20033;-73
2022/07/18 09:45:41;;;;;;;6.60;1.75;;;22.70;48.00;;;;;;5049628;28;20021;-73
2022/07/18 09:48:13;;;;;;;1.48;1.25;;;22.80;48.50;;;;;;5050772;28;20036;-78
2022/07/18 09:50:50;;;;;;;2.15;1.55;;;23.00;49.50;;;;;;5049454;28;20025;-73
2022/07/18 09:53:19;;;;;;;2.03;1.67;;;23.20;48.40;;;;;;5049625;28;20028;-73
2022/07/18 09:55:47;;;;;;;5.68;1.40;;;23.20;47.60;;;;;;5050673;28;20043;-78
2022/07/18 09:58:15;;;;;;;2.63;1.55;;;23.00;45.90;;;;;;5049367;28;20127;-78
2022/07/18 10:00:41;;;;;;;3.20;1.65;;;23.30;48.80;;;;;;5050553;28;20413;-73
2022/07/18 10:03:08;;;;;;;5.13;1.60;;;23.20;47.80;;;;;;5049429;28;20021;-78
2022/07/18 10:05:39;;;;;;;4.07;1.60;;;23.20;47.30;;;;;;5048236;28;20023;-78
2022/07/18 10:08:10;;;;;;;2.45;1.80;;;23.30;48.40;;;;;;5048937;28;20581;-73
2022/07/18 10:10:37;;;;;;;2.15;1.63;;;23.50;48.60;;;;;;5049010;28;20100;-78
2022/07/18 10:13:05;;;;;;;2.95;1.63;;;23.70;48.00;;;;;;5049434;28;20032;-73
2022/07/18 10:15:34;;;;;;;1.85;1.67;;;23.80;47.40;;;;;;5050375;28;20024;-73
2022/07/18 10:18:03;;;;;;;5.15;2.08;;;23.80;47.70;;;;;;5050357;28;20073;-77
2022/07/18 10:20:35;;;;;;;7.68;2.22;;;23.90;47.70;;;;;;5050361;28;20040;-73
2022/07/18 10:23:21;;;;;;;4.63;1.63;;;24.00;47.10;;;;;;5050429;28;20073;-78
2022/07/18 10:26:15;;;;;;;4.28;1.60;;;23.80;46.90;;;;;;5050183;28;20033;-78
2022/07/18 10:28:56;;;;;;;5.47;2.33;;;23.70;46.60;;;;;;5050349;28;20082;-78
2022/07/18 10:31:24;;;;;;;3.20;1.65;;;23.50;46.60;;;;;;5050180;28;20441;-73
2022/07/18 10:33:51;;;;;;;1.95;1.67;;;23.60;46.60;;;;;;5050251;28;20444;-73
2022/07/18 10:36:18;;;;;;;2.20;1.42;;;23.60;46.80;;;;;;5050253;28;20028;-73
2022/07/18 10:39:05;;;;;;;4.20;1.70;;;23.40;45.90;;;;;;5050228;28;20074;-77
2022/07/18 10:41:31;;;;;;;5.10;1.80;;;23.40;46.60;;;;;;5050050;28;20025;-78
2022/07/18 10:43:57;;;;;;;2.28;1.67;;;23.30;46.70;;;;;;5050011;28;20478;-77
2022/07/18 10:46:22;;;;;;;3.58;1.40;;;23.50;47.20;;;;;;5050060;28;20028;-78
2022/07/18 10:48:53;;;;;;;5.15;1.63;;;23.30;46.30;;;;;;5050133;28;20021;-78
2022/07/18 10:51:27;;;;;;;7.05;1.50;;;23.30;46.90;;;;;;5049996;28;20108;-73
2022/07/18 10:54:06;;;;;;;3.30;1.50;;;23.30;46.80;;;;;;5049962;27;20029;-73
2022/07/18 10:56:37;;;;;;;4.10;1.73;;;23.50;46.30;;;;;;5048778;28;20465;-73
2022/07/18 10:59:20;;;;;;;2.97;1.40;;;23.30;46.50;;;;;;5050116;28;20386;-74
2022/07/18 11:01:51;;;;;;;3.30;1.80;;;23.60;47.50;;;;;;5123547;27;20039;-74
2022/07/18 11:04:26;;;;;;;1.38;1.10;;;23.50;47.00;;;;;;5117730;27;20490;-77
2022/07/18 11:07:02;;;;;;;4.13;1.63;;;23.70;46.90;;;;;;5048366;28;20101;-77
2022/07/18 11:09:40;;;;;;;2.13;1.40;;;23.90;47.40;;;;;;5049943;28;20028;-77
2022/07/18 11:12:20;;;;;;;3.88;1.48;;;23.90;46.10;;;;;;5049694;28;20028;-77
2022/07/18 11:14:57;;;;;;;3.67;1.42;;;23.80;46.50;;;;;;5049866;28;20045;-73
2022/07/18 11:17:59;;;;;;;2.90;1.45;;;24.00;46.20;;;;;;5052223;28;20017;-73
2022/07/18 11:20:33;;;;;;;1.40;1.30;;;24.20;47.10;;;;;;5053279;28;20505;-77
2022/07/18 11:22:59;;;;;;;3.83;1.58;;;24.40;45.30;;;;;;5052955;28;20036;-73
2022/07/18 11:25:29;;;;;;;4.20;1.60;;;24.40;45.30;;;;;;5053177;28;20082;-77
2022/07/18 11:27:56;;;;;;;1.52;1.35;;;24.60;46.20;;;;;;5052971;28;20077;-73
2022/07/18 11:30:23;;;;;;;4.72;1.60;;;24.70;45.40;;;;;;5053083;28;20017;-73
2022/07/18 11:32:50;;;;;;;1.52;1.40;;;24.80;45.00;;;;;;5052958;28;20025;-73
2022/07/18 11:35:22;;;;;;;2.47;1.27;;;25.00;45.00;;;;;;5053066;28;20024;-77
2022/07/18 11:37:49;;;;;;;2.72;1.35;;;25.10;44.70;;;;;;5052892;28;20021;-73
2022/07/18 11:40:15;;;;;;;4.15;1.75;;;25.10;43.70;;;;;;5052854;28;20037;-77
2022/07/18 11:42:41;;;;;;;2.92;1.30;;;25.20;44.60;;;;;;5052752;28;20025;-77
2022/07/18 11:45:10;;;;;;;1.75;1.08;;;25.30;43.30;;;;;;5052978;28;20048;-77
2022/07/18 11:47:50;;;;;;;2.40;1.25;;;25.10;42.90;;;;;;5052780;28;20025;-73
2022/07/18 11:50:18;;;;;;;1.25;1.15;;;25.00;43.80;;;;;;5052900;28;20470;-77
2022/07/18 11:52:44;;;;;;;3.20;1.70;;;24.80;43.80;;;;;;5052484;28;20017;-77
2022/07/18 11:55:13;;;;;;;5.10;1.30;;;25.10;45.10;;;;;;5052799;28;20017;-73
2022/07/18 11:57:39;;;;;;;3.25;1.30;;;25.30;44.10;;;;;;5052681;28;20032;-73
2022/07/18 12:00:17;;;;;;;4.75;1.40;;;25.50;44.90;;;;;;5054470;27;20044;-74
2022/07/18 12:03:06;;;;;;;2.63;1.20;;;25.80;45.10;;;;;;5157678;27;20605;-73
2022/07/18 12:05:33;;;;;;;2.15;1.52;;;26.10;45.90;;;;;;5138292;27;20368;-73
2022/07/18 12:07:59;;;;;;;4.75;1.85;;;26.20;44.60;;;;;;5136762;27;20059;-77
2022/07/18 12:10:25;;;;;;;1.80;1.55;;;26.50;44.60;;;;;;5135768;27;20019;-73
2022/07/18 12:12:50;;;;;;;2.45;1.40;;;26.40;43.80;;;;;;5136725;27;20354;-77
2022/07/18 12:15:16;;;;;;;2.53;1.38;;;26.50;44.00;;;;;;5136830;27;20019;-73
2022/07/18 12:17:50;;;;;;;4.78;1.83;;;26.40;42.40;;;;;;5136775;27;20545;-73
2022/07/18 12:20:21;;;;;;;5.78;1.30;;;26.10;42.70;;;;;;5136700;27;20031;-77
2022/07/18 12:23:07;;;;;;;2.45;1.60;;;25.80;42.60;;;;;;5093680;27;20048;-74
2022/07/18 12:25:40;;;;;;;2.83;1.52;;;25.60;42.80;;;;;;5052341;28;20018;-77
2022/07/18 12:28:17;;;;;;;3.13;1.40;;;25.60;43.60;;;;;;5051972;28;20520;-73
2022/07/18 12:30:44;;;;;;;2.80;1.70;;;25.60;42.90;;;;;;5050785;28;20071;-73
2022/07/18 12:33:10;;;;;;;2.65;1.08;;;25.70;44.50;;;;;;5051998;28;20025;-77
2022/07/18 12:35:37;;;;;;;2.80;1.65;;;25.60;44.10;;;;;;5052118;28;20069;-77
2022/07/18 12:38:10;;;;;;;2.45;1.90;;;25.60;43.50;;;;;;5051901;28;20039;-73
2022/07/18 12:40:46;;;;;;;2.58;1.48;;;25.60;44.80;;;;;;5052246;28;20041;-77
2022/07/18 12:43:14;;;;;;;3.08;1.42;;;25.70;44.00;;;;;;5050530;28;20116;-77
2022/07/18 12:45:40;;;;;;;2.15;1.25;;;25.60;43.50;;;;;;5051985;28;20032;-73
2022/07/18 12:48:09;;;;;;;3.15;1.60;;;25.60;43.50;;;;;;5051742;28;20032;-73
2022/07/18 12:50:36;;;;;;;3.53;1.60;;;25.50;44.10;;;;;;5051875;28;20021;-73
2022/07/18 12:53:01;;;;;;;2.17;1.60;;;25.40;45.00;;;;;;5051571;28;20028;-73
2022/07/18 12:55:27;;;;;;;2.33;1.52;;;25.40;45.20;;;;;;5051744;28;20025;-74